sensor_id;sensor_type;location;lat;lon;timestamp;pressure;altitude;pressure_sealevel;temperature;humidity
42003;BME280;27693;50.506;30.832;2023-03-20T00:00:24;100198.81;;;2.77;82.58
42003;BME280;27693;50.506;30.832;2023-03-20T00:01:28;100198.81;;;2.80;82.99
42003;BME280;27693;50.506;30.832;2023-03-20T00:02:31;100194.48;;;2.88;83.31
42003;BME280;27693;50.506;30.832;2023-03-20T00:03:33;100197.05;;;2.85;83.23
42003;BME280;27693;50.506;30.832;2023-03-20T00:04:36;100196.97;;;2.97;83.40
42003;BME280;27693;50.506;30.832;2023-03-20T00:05:39;100191.80;;;3.05;83.20
42003;BME280;27693;50.506;30.832;2023-03-20T00:06:42;100189.28;;;2.93;82.97
42003;BME280;27693;50.506;30.832;2023-03-20T00:07:45;100178.20;;;2.86;83.40
42003;BME280;27693;50.506;30.832;2023-03-20T00:08:51;100178.20;;;2.86;83.40
42003;BME280;27693;50.506;30.832;2023-03-20T00:09:54;100189.23;;;2.99;83.63
42003;BME280;27693;50.506;30.832;2023-03-20T00:10:58;100182.31;;;3.10;83.41
42003;BME280;27693;50.506;30.832;2023-03-20T00:12:01;100185.76;;;3.06;83.05
42003;BME280;27693;50.506;30.832;2023-03-20T00:13:05;100186.58;;;3.13;83.17
42003;BME280;27693;50.506;30.832;2023-03-20T00:14:12;100183.11;;;3.17;82.90
42003;BME280;27693;50.506;30.832;2023-03-20T00:16:38;100180.78;;;2.83;83.84
42003;BME280;27693;50.506;30.832;2023-03-20T00:17:41;100185.15;;;2.71;83.96
42003;BME280;27693;50.506;30.832;2023-03-20T00:18:43;100179.97;;;2.78;84.01
42003;BME280;27693;50.506;30.832;2023-03-20T00:19:46;100185.11;;;2.78;84.08
42003;BME280;27693;50.506;30.832;2023-03-20T00:20:49;100178.25;;;2.77;84.04
42003;BME280;27693;50.506;30.832;2023-03-20T00:21:54;100166.39;;;2.57;84.55
42003;BME280;27693;50.506;30.832;2023-03-20T00:22:56;100166.39;;;2.57;84.55
42003;BME280;27693;50.506;30.832;2023-03-20T00:23:59;100175.77;;;2.67;84.64
42003;BME280;27693;50.506;30.832;2023-03-20T00:25:01;100184.30;;;2.69;84.60
42003;BME280;27693;50.506;30.832;2023-03-20T00:26:07;100174.88;;;2.68;84.57
42003;BME280;27693;50.506;30.832;2023-03-20T00:27:12;100173.20;;;2.61;84.79
42003;BME280;27693;50.506;30.832;2023-03-20T00:29:42;100166.39;;;2.60;85.04
42003;BME280;27693;50.506;30.832;2023-03-20T00:30:46;100179.30;;;2.42;85.72
42003;BME280;27693;50.506;30.832;2023-03-20T00:31:49;100173.38;;;2.33;85.93
42003;BME280;27693;50.506;30.832;2023-03-20T00:32:52;100168.23;;;2.35;86.26
42003;BME280;27693;50.506;30.832;2023-03-20T00:33:57;100169.05;;;2.40;86.28
42003;BME280;27693;50.506;30.832;2023-03-20T00:35:00;100173.34;;;2.36;86.66
42003;BME280;27693;50.506;30.832;2023-03-20T00:36:04;100159.63;;;2.42;86.65
42003;BME280;27693;50.506;30.832;2023-03-20T00:37:09;100164.68;;;2.56;86.67
42003;BME280;27693;50.506;30.832;2023-03-20T00:38:12;100171.62;;;2.43;86.62
42003;BME280;27693;50.506;30.832;2023-03-20T00:39:14;100168.21;;;2.39;86.75
42003;BME280;27693;50.506;30.832;2023-03-20T00:40:17;100171.60;;;2.45;86.79
42003;BME280;27693;50.506;30.832;2023-03-20T00:42:28;100158.81;;;2.34;87.02
42003;BME280;27693;50.506;30.832;2023-03-20T00:43:31;100161.33;;;2.45;87.08
42003;BME280;27693;50.506;30.832;2023-03-20T00:44:39;100160.44;;;2.49;87.09
42003;BME280;27693;50.506;30.832;2023-03-20T00:45:44;100156.11;;;2.60;87.10
42003;BME280;27693;50.506;30.832;2023-03-20T00:46:51;100161.08;;;2.82;87.19
42003;BME280;27693;50.506;30.832;2023-03-20T00:47:53;100162.72;;;2.94;86.84
42003;BME280;27693;50.506;30.832;2023-03-20T00:48:56;100161.88;;;2.93;86.18
42003;BME280;27693;50.506;30.832;2023-03-20T00:49:59;100153.30;;;2.93;85.83
42003;BME280;27693;50.506;30.832;2023-03-20T00:51:01;100160.22;;;2.86;85.72
42003;BME280;27693;50.506;30.832;2023-03-20T00:52:04;100156.80;;;2.84;85.93
42003;BME280;27693;50.506;30.832;2023-03-20T00:53:09;100159.31;;;2.93;85.80
42003;BME280;27693;50.506;30.832;2023-03-20T00:54:14;100162.61;;;3.09;86.04
42003;BME280;27693;50.506;30.832;2023-03-20T00:55:21;100159.93;;;3.22;85.43
42003;BME280;27693;50.506;30.832;2023-03-20T00:56:31;100153.91;;;3.24;84.86
42003;BME280;27693;50.506;30.832;2023-03-20T00:57:39;100158.28;;;3.14;84.73
42003;BME280;27693;50.506;30.832;2023-03-20T00:58:42;100154.23;;;2.84;84.85
42003;BME280;27693;50.506;30.832;2023-03-20T01:00:02;100156.05;;;2.71;85.34
42003;BME280;27693;50.506;30.832;2023-03-20T01:01:06;100159.41;;;2.75;85.64
42003;BME280;27693;50.506;30.832;2023-03-20T01:02:10;100155.93;;;2.88;85.67
42003;BME280;27693;50.506;30.832;2023-03-20T01:03:18;100155.93;;;2.88;85.71
42003;BME280;27693;50.506;30.832;2023-03-20T01:04:22;100160.23;;;2.83;85.52
42003;BME280;27693;50.506;30.832;2023-03-20T01:05:26;100157.66;;;2.83;85.55
42003;BME280;27693;50.506;30.832;2023-03-20T01:06:28;100162.69;;;2.98;85.67
42003;BME280;27693;50.506;30.832;2023-03-20T01:07:32;100158.41;;;3.00;85.61
42003;BME280;27693;50.506;30.832;2023-03-20T01:08:36;100157.55;;;3.01;85.29
42003;BME280;27693;50.506;30.832;2023-03-20T01:09:39;100158.38;;;3.02;84.98
42003;BME280;27693;50.506;30.832;2023-03-20T01:10:43;100160.07;;;3.04;84.99
42003;BME280;27693;50.506;30.832;2023-03-20T01:11:46;100170.33;;;3.09;85.04
42003;BME280;27693;50.506;30.832;2023-03-20T01:12:49;100168.66;;;3.02;84.52
42003;BME280;27693;50.506;30.832;2023-03-20T01:13:52;100169.49;;;3.06;84.45
42003;BME280;27693;50.506;30.832;2023-03-20T01:14:56;100166.13;;;2.97;84.41
42003;BME280;27693;50.506;30.832;2023-03-20T01:15:59;100166.11;;;3.00;84.74
42003;BME280;27693;50.506;30.832;2023-03-20T01:17:02;100165.21;;;3.04;84.74
42003;BME280;27693;50.506;30.832;2023-03-20T01:18:07;100156.66;;;3.04;84.67
42003;BME280;27693;50.506;30.832;2023-03-20T01:19:14;100158.51;;;2.85;84.51
42003;BME280;27693;50.506;30.832;2023-03-20T01:20:23;100152.61;;;2.70;84.98
42003;BME280;27693;50.506;30.832;2023-03-20T01:21:26;100156.03;;;2.69;85.58
42003;BME280;27693;50.506;30.832;2023-03-20T01:22:28;100146.66;;;2.62;85.82
42003;BME280;27693;50.506;30.832;2023-03-20T01:23:32;100152.59;;;2.74;86.12
42003;BME280;27693;50.506;30.832;2023-03-20T01:24:35;100145.66;;;2.85;86.19
42003;BME280;27693;50.506;30.832;2023-03-20T01:25:40;100150.70;;;2.97;86.25
42003;BME280;27693;50.506;30.832;2023-03-20T01:26:44;100140.37;;;3.03;86.19
42003;BME280;27693;50.506;30.832;2023-03-20T01:27:50;100148.06;;;3.07;85.84
42003;BME280;27693;50.506;30.832;2023-03-20T01:28:53;100144.77;;;2.91;85.41
42003;BME280;27693;50.506;30.832;2023-03-20T01:29:56;100151.65;;;2.87;85.70
42003;BME280;27693;50.506;30.832;2023-03-20T01:31:00;100155.01;;;2.94;85.85
42003;BME280;27693;50.506;30.832;2023-03-20T01:32:17;100148.16;;;2.96;85.80
42003;BME280;27693;50.506;30.832;2023-03-20T01:33:19;100151.47;;;3.10;85.94
42003;BME280;27693;50.506;30.832;2023-03-20T01:34:24;100147.08;;;3.22;85.67
42003;BME280;27693;50.506;30.832;2023-03-20T01:35:27;100146.13;;;3.30;85.18
42003;BME280;27693;50.506;30.832;2023-03-20T01:36:31;100150.28;;;3.47;85.11
42003;BME280;27693;50.506;30.832;2023-03-20T01:37:34;100157.02;;;3.57;84.87
42003;BME280;27693;50.506;30.832;2023-03-20T01:38:39;100150.13;;;3.62;84.17
42003;BME280;27693;50.506;30.832;2023-03-20T01:39:41;100143.14;;;3.74;83.96
42003;BME280;27693;50.506;30.832;2023-03-20T01:40:56;100139.63;;;3.81;83.52
42003;BME280;27693;50.506;30.832;2023-03-20T01:42:02;100147.27;;;3.90;83.20
42003;BME280;27693;50.506;30.832;2023-03-20T01:43:15;100142.83;;;4.02;82.47
42003;BME280;27693;50.506;30.832;2023-03-20T01:44:29;100137.57;;;4.09;81.80
42003;BME280;27693;50.506;30.832;2023-03-20T01:45:35;100135.78;;;4.16;81.09
42003;BME280;27693;50.506;30.832;2023-03-20T01:46:38;100142.56;;;4.23;80.38
42003;BME280;27693;50.506;30.832;2023-03-20T01:47:43;100143.30;;;4.33;79.60
42003;BME280;27693;50.506;30.832;2023-03-20T01:51:39;100138.69;;;4.55;77.82
42003;BME280;27693;50.506;30.832;2023-03-20T01:52:44;100144.56;;;4.67;76.75
42003;BME280;27693;50.506;30.832;2023-03-20T01:53:50;100144.56;;;4.67;76.75
42003;BME280;27693;50.506;30.832;2023-03-20T01:54:53;100132.41;;;4.73;76.14
42003;BME280;27693;50.506;30.832;2023-03-20T01:55:58;100140.95;;;4.77;75.95
42003;BME280;27693;50.506;30.832;2023-03-20T01:57:16;100139.18;;;4.80;75.70
42003;BME280;27693;50.506;30.832;2023-03-20T01:58:25;100140.02;;;4.81;75.58
42003;BME280;27693;50.506;30.832;2023-03-20T01:59:47;100139.12;;;4.85;75.14
42003;BME280;27693;50.506;30.832;2023-03-20T02:00:46;100141.69;;;4.85;74.90
42003;BME280;27693;50.506;30.832;2023-03-20T02:01:51;100145.98;;;4.86;74.53
42003;BME280;27693;50.506;30.832;2023-03-20T02:02:55;100144.20;;;4.90;74.34
42003;BME280;27693;50.506;30.832;2023-03-20T02:04:06;100142.44;;;4.92;74.36
42003;BME280;27693;50.506;30.832;2023-03-20T02:05:14;100138.91;;;4.98;73.96
42003;BME280;27693;50.506;30.832;2023-03-20T02:06:20;100146.69;;;4.96;74.27
42003;BME280;27693;50.506;30.832;2023-03-20T02:07:25;100144.20;;;4.90;74.25
42003;BME280;27693;50.506;30.832;2023-03-20T02:08:48;100148.46;;;4.92;74.03
42003;BME280;27693;50.506;30.832;2023-03-20T02:09:51;100130.34;;;4.97;73.57
42003;BME280;27693;50.506;30.832;2023-03-20T02:10:58;100137.27;;;4.93;73.64
42003;BME280;27693;50.506;30.832;2023-03-20T02:12:04;100142.63;;;4.79;74.27
42003;BME280;27693;50.506;30.832;2023-03-20T02:13:08;100148.63;;;4.82;74.40
42003;BME280;27693;50.506;30.832;2023-03-20T02:14:14;100142.69;;;4.76;74.60
42003;BME280;27693;50.506;30.832;2023-03-20T02:15:19;100147.05;;;4.73;74.93
42003;BME280;27693;50.506;30.832;2023-03-20T02:16:23;100141.02;;;4.72;74.51
42003;BME280;27693;50.506;30.832;2023-03-20T02:17:39;100141.89;;;4.73;74.24
42003;BME280;27693;50.506;30.832;2023-03-20T02:18:45;100148.69;;;4.77;73.99
42003;BME280;27693;50.506;30.832;2023-03-20T02:20:12;100146.08;;;4.78;73.96
42003;BME280;27693;50.506;30.832;2023-03-20T02:23:07;100145.27;;;4.75;73.97
42003;BME280;27693;50.506;30.832;2023-03-20T02:27:23;100151.23;;;4.78;72.91
42003;BME280;27693;50.506;30.832;2023-03-20T02:28:51;100145.33;;;4.72;72.94
42003;BME280;27693;50.506;30.832;2023-03-20T02:33:00;100156.78;;;4.51;73.13
42003;BME280;27693;50.506;30.832;2023-03-20T02:39:23;100149.95;;;4.50;73.58
42003;BME280;27693;50.506;30.832;2023-03-20T02:43:07;100161.12;;;4.47;73.60
42003;BME280;27693;50.506;30.832;2023-03-20T02:47:11;100146.56;;;4.46;73.96
42003;BME280;27693;50.506;30.832;2023-03-20T02:53:51;100145.52;;;4.59;73.04
42003;BME280;27693;50.506;30.832;2023-03-20T02:56:21;100131.11;;;4.44;72.74
42003;BME280;27693;50.506;30.832;2023-03-20T02:57:43;100138.00;;;4.44;72.29
42003;BME280;27693;50.506;30.832;2023-03-20T02:58:56;100125.95;;;4.44;72.14
42003;BME280;27693;50.506;30.832;2023-03-20T02:59:58;100133.69;;;4.46;71.95
42003;BME280;27693;50.506;30.832;2023-03-20T03:01:04;100130.36;;;4.38;72.09
42003;BME280;27693;50.506;30.832;2023-03-20T03:02:12;100131.14;;;4.43;72.19
42003;BME280;27693;50.506;30.832;2023-03-20T03:04:31;100137.06;;;4.48;72.04
42003;BME280;27693;50.506;30.832;2023-03-20T03:05:42;100128.47;;;4.49;72.18
42003;BME280;27693;50.506;30.832;2023-03-20T03:06:45;100124.16;;;4.51;72.05
42003;BME280;27693;50.506;30.832;2023-03-20T03:07:52;100123.31;;;4.49;72.33
42003;BME280;27693;50.506;30.832;2023-03-20T03:09:02;100114.75;;;4.47;72.31
42003;BME280;27693;50.506;30.832;2023-03-20T03:10:09;100116.45;;;4.48;72.33
42003;BME280;27693;50.506;30.832;2023-03-20T03:11:11;100113.02;;;4.49;72.27
42003;BME280;27693;50.506;30.832;2023-03-20T03:12:17;100107.02;;;4.48;72.30
42003;BME280;27693;50.506;30.832;2023-03-20T03:13:27;100109.59;;;4.48;72.62
42003;BME280;27693;50.506;30.832;2023-03-20T03:14:46;100111.30;;;4.48;72.96
42003;BME280;27693;50.506;30.832;2023-03-20T03:15:51;100116.45;;;4.50;72.84
42003;BME280;27693;50.506;30.832;2023-03-20T03:16:56;100107.86;;;4.49;72.89
42003;BME280;27693;50.506;30.832;2023-03-20T03:18:02;100100.97;;;4.51;72.91
42003;BME280;27693;50.506;30.832;2023-03-20T03:19:16;100103.55;;;4.51;73.24
42003;BME280;27693;50.506;30.832;2023-03-20T03:20:23;100095.84;;;4.48;73.42
42003;BME280;27693;50.506;30.832;2023-03-20T03:21:27;100098.45;;;4.46;73.68
42003;BME280;27693;50.506;30.832;2023-03-20T03:22:31;100090.75;;;4.45;73.64
42003;BME280;27693;50.506;30.832;2023-03-20T03:23:46;100100.16;;;4.47;73.52
42003;BME280;27693;50.506;30.832;2023-03-20T03:24:51;100090.75;;;4.45;73.99
42003;BME280;27693;50.506;30.832;2023-03-20T03:25:56;100090.75;;;4.45;73.78
42003;BME280;27693;50.506;30.832;2023-03-20T03:27:03;100089.89;;;4.46;73.56
42003;BME280;27693;50.506;30.832;2023-03-20T03:28:37;100091.66;;;4.42;73.66
42003;BME280;27693;50.506;30.832;2023-03-20T03:29:40;100089.08;;;4.41;73.52
42003;BME280;27693;50.506;30.832;2023-03-20T03:30:45;100093.36;;;4.42;73.07
42003;BME280;27693;50.506;30.832;2023-03-20T03:31:49;100090.78;;;4.42;72.71
42003;BME280;27693;50.506;30.832;2023-03-20T03:33:13;100091.63;;;4.44;72.35
42003;BME280;27693;50.506;30.832;2023-03-20T03:34:19;100084.80;;;4.41;72.06
42003;BME280;27693;50.506;30.832;2023-03-20T03:35:23;100088.27;;;4.39;72.58
42003;BME280;27693;50.506;30.832;2023-03-20T03:37:48;100079.73;;;4.34;72.12
42003;BME280;27693;50.506;30.832;2023-03-20T03:39:14;100084.89;;;4.35;71.88
42003;BME280;27693;50.506;30.832;2023-03-20T03:40:19;100082.25;;;4.38;71.66
42003;BME280;27693;50.506;30.832;2023-03-20T03:42:41;100090.01;;;4.37;71.39
42003;BME280;27693;50.506;30.832;2023-03-20T03:45:28;100082.43;;;4.26;71.35
42003;BME280;27693;50.506;30.832;2023-03-20T03:47:55;100081.59;;;4.25;71.07
42003;BME280;27693;50.506;30.832;2023-03-20T03:49:00;100085.94;;;4.22;71.40
42003;BME280;27693;50.506;30.832;2023-03-20T03:51:29;100085.70;;;4.39;71.35
42003;BME280;27693;50.506;30.832;2023-03-20T03:52:35;100088.45;;;4.25;71.34
42003;BME280;27693;50.506;30.832;2023-03-20T03:53:49;100094.44;;;4.27;70.65
42003;BME280;27693;50.506;30.832;2023-03-20T03:55:05;100094.44;;;4.27;70.65
42003;BME280;27693;50.506;30.832;2023-03-20T03:56:11;100090.19;;;4.23;70.81
42003;BME280;27693;50.506;30.832;2023-03-20T03:57:19;100093.66;;;4.20;70.75
42003;BME280;27693;50.506;30.832;2023-03-20T03:58:34;100095.37;;;4.21;70.94
42003;BME280;27693;50.506;30.832;2023-03-20T03:59:44;100090.22;;;4.21;70.99
42003;BME280;27693;50.506;30.832;2023-03-20T04:00:49;100100.48;;;4.23;70.81
42003;BME280;27693;50.506;30.832;2023-03-20T04:01:53;100096.20;;;4.23;70.53
42003;BME280;27693;50.506;30.832;2023-03-20T04:02:59;100098.00;;;4.18;70.54
42003;BME280;27693;50.506;30.832;2023-03-20T04:04:04;100094.61;;;4.13;70.68
42003;BME280;27693;50.506;30.832;2023-03-20T04:05:08;100096.41;;;4.08;70.89
42003;BME280;27693;50.506;30.832;2023-03-20T04:06:12;100095.59;;;4.04;70.97
42003;BME280;27693;50.506;30.832;2023-03-20T04:07:15;100095.59;;;4.04;71.06
42003;BME280;27693;50.506;30.832;2023-03-20T04:08:17;100096.45;;;4.05;71.06
42003;BME280;27693;50.506;30.832;2023-03-20T04:09:21;100094.69;;;4.07;71.03
42003;BME280;27693;50.506;30.832;2023-03-20T04:10:24;100095.56;;;4.06;71.17
42003;BME280;27693;50.506;30.832;2023-03-20T04:11:27;100091.31;;;4.05;71.43
42003;BME280;27693;50.506;30.832;2023-03-20T04:12:38;100091.28;;;4.06;71.62
42003;BME280;27693;50.506;30.832;2023-03-20T04:13:45;100091.25;;;4.08;71.68
42003;BME280;27693;50.506;30.832;2023-03-20T04:14:49;100086.10;;;4.08;71.90
42003;BME280;27693;50.506;30.832;2023-03-20T04:15:52;100087.75;;;4.12;71.71
42003;BME280;27693;50.506;30.832;2023-03-20T04:16:55;100090.33;;;4.13;71.64
42003;BME280;27693;50.506;30.832;2023-03-20T04:17:57;100094.58;;;4.16;71.56
42003;BME280;27693;50.506;30.832;2023-03-20T04:19:00;100093.66;;;4.20;71.26
42003;BME280;27693;50.506;30.832;2023-03-20T04:20:05;100097.05;;;4.24;71.23
42003;BME280;27693;50.506;30.832;2023-03-20T04:21:08;100085.00;;;4.26;70.95
42003;BME280;27693;50.506;30.832;2023-03-20T04:22:11;100092.67;;;4.30;70.86
42003;BME280;27693;50.506;30.832;2023-03-20T04:23:14;100090.03;;;4.34;70.93
42003;BME280;27693;50.506;30.832;2023-03-20T04:24:17;100096.90;;;4.35;70.79
42003;BME280;27693;50.506;30.832;2023-03-20T04:25:21;100094.32;;;4.35;70.98
42003;BME280;27693;50.506;30.832;2023-03-20T04:26:26;100091.75;;;4.35;71.05
42003;BME280;27693;50.506;30.832;2023-03-20T04:27:29;100096.03;;;4.36;70.81
42003;BME280;27693;50.506;30.832;2023-03-20T04:28:32;100106.30;;;4.37;70.89
42003;BME280;27693;50.506;30.832;2023-03-20T04:29:53;100104.53;;;4.41;70.88
42003;BME280;27693;50.506;30.832;2023-03-20T04:31:14;100100.25;;;4.40;70.93
42003;BME280;27693;50.506;30.832;2023-03-20T04:32:22;100102.86;;;4.38;70.63
42003;BME280;27693;50.506;30.832;2023-03-20T04:33:38;100103.67;;;4.42;70.31
42003;BME280;27693;50.506;30.832;2023-03-20T04:34:47;100104.53;;;4.41;70.39
42003;BME280;27693;50.506;30.832;2023-03-20T04:36:09;100100.25;;;4.40;70.53
42003;BME280;27693;50.506;30.832;2023-03-20T04:37:12;100102.89;;;4.37;71.09
42003;BME280;27693;50.506;30.832;2023-03-20T04:38:17;100100.31;;;4.37;70.81
42003;BME280;27693;50.506;30.832;2023-03-20T04:39:20;100113.19;;;4.37;71.28
42003;BME280;27693;50.506;30.832;2023-03-20T04:40:23;100104.59;;;4.38;71.05
42003;BME280;27693;50.506;30.832;2023-03-20T04:41:26;100113.13;;;4.40;71.20
42003;BME280;27693;50.506;30.832;2023-03-20T04:42:31;100101.06;;;4.45;70.57
42003;BME280;27693;50.506;30.832;2023-03-20T04:43:36;100106.09;;;4.53;70.03
42003;BME280;27693;50.506;30.832;2023-03-20T04:44:38;100104.34;;;4.53;70.22
42003;BME280;27693;50.506;30.832;2023-03-20T04:45:42;100109.50;;;4.53;69.96
42003;BME280;27693;50.506;30.832;2023-03-20T04:46:44;100110.41;;;4.52;69.92
42003;BME280;27693;50.506;30.832;2023-03-20T04:47:49;100108.70;;;4.51;70.00
42003;BME280;27693;50.506;30.832;2023-03-20T04:48:53;100101.87;;;4.47;70.70
42003;BME280;27693;50.506;30.832;2023-03-20T04:49:56;100108.79;;;4.45;70.54
42003;BME280;27693;50.506;30.832;2023-03-20T04:50:58;100104.66;;;4.33;71.04
42003;BME280;27693;50.506;30.832;2023-03-20T04:52:03;100117.53;;;4.33;71.43
42003;BME280;27693;50.506;30.832;2023-03-20T04:53:14;100107.23;;;4.33;71.62
42003;BME280;27693;50.506;30.832;2023-03-20T04:54:19;100112.32;;;4.36;70.99
42003;BME280;27693;50.506;30.832;2023-03-20T04:55:21;100105.41;;;4.40;70.63
42003;BME280;27693;50.506;30.832;2023-03-20T04:56:24;100103.67;;;4.42;70.20
42003;BME280;27693;50.506;30.832;2023-03-20T04:57:29;100102.83;;;4.40;69.96
42003;BME280;27693;50.506;30.832;2023-03-20T04:58:34;100101.18;;;4.36;69.95
42003;BME280;27693;50.506;30.832;2023-03-20T04:59:38;100102.92;;;4.35;70.37
42003;BME280;27693;50.506;30.832;2023-03-20T05:00:42;100102.11;;;4.30;71.58
42003;BME280;27693;50.506;30.832;2023-03-20T05:01:46;100101.30;;;4.26;72.49
42003;BME280;27693;50.506;30.832;2023-03-20T05:02:48;100107.32;;;4.27;72.70
42003;BME280;27693;50.506;30.832;2023-03-20T05:03:51;100094.47;;;4.25;72.50
42003;BME280;27693;50.506;30.832;2023-03-20T05:04:54;100098.81;;;4.22;72.20
42003;BME280;27693;50.506;30.832;2023-03-20T05:05:57;100103.95;;;4.20;71.38
42003;BME280;27693;50.506;30.832;2023-03-20T05:07:00;100094.58;;;4.16;71.50
42003;BME280;27693;50.506;30.832;2023-03-20T05:08:05;100104.91;;;4.13;72.03
42003;BME280;27693;50.506;30.832;2023-03-20T05:09:09;100098.00;;;4.18;71.25
42003;BME280;27693;50.506;30.832;2023-03-20T05:10:13;100098.00;;;4.18;71.25
42003;BME280;27693;50.506;30.832;2023-03-20T05:11:21;100101.36;;;4.23;70.62
42003;BME280;27693;50.506;30.832;2023-03-20T05:12:31;100104.83;;;4.19;70.55
42003;BME280;27693;50.506;30.832;2023-03-20T05:13:36;100103.15;;;4.18;70.51
42003;BME280;27693;50.506;30.832;2023-03-20T05:14:46;100105.13;;;3.97;71.03
42003;BME280;27693;50.506;30.832;2023-03-20T05:15:59;100101.77;;;3.91;71.38
42003;BME280;27693;50.506;30.832;2023-03-20T05:17:11;100106.97;;;3.88;71.71
42003;BME280;27693;50.506;30.832;2023-03-20T05:18:21;100110.48;;;3.79;71.70
42003;BME280;27693;50.506;30.832;2023-03-20T05:19:33;100108.73;;;3.84;71.59
42003;BME280;27693;50.506;30.832;2023-03-20T05:20:42;100106.94;;;3.89;71.67
42003;BME280;27693;50.506;30.832;2023-03-20T05:22:04;100108.83;;;3.75;71.84
42003;BME280;27693;50.506;30.832;2023-03-20T05:23:25;100097.66;;;3.74;72.09
42003;BME280;27693;50.506;30.832;2023-03-20T05:24:46;100106.09;;;3.87;71.71
42003;BME280;27693;50.506;30.832;2023-03-20T05:25:53;100104.37;;;3.89;71.89
42003;BME280;27693;50.506;30.832;2023-03-20T05:27:00;100106.86;;;3.95;71.92
42003;BME280;27693;50.506;30.832;2023-03-20T05:28:22;100111.06;;;4.03;71.93
42003;BME280;27693;50.506;30.832;2023-03-20T05:29:32;100109.16;;;4.15;71.77
42003;BME280;27693;50.506;30.832;2023-03-20T05:30:43;100101.18;;;4.36;71.37
42003;BME280;27693;50.506;30.832;2023-03-20T05:31:50;100096.12;;;4.29;70.98
42003;BME280;27693;50.506;30.832;2023-03-20T05:33:00;100106.13;;;4.51;70.42
42003;BME280;27693;50.506;30.832;2023-03-20T05:34:02;100101.96;;;4.42;70.26
42003;BME280;27693;50.506;30.832;2023-03-20T05:35:08;100097.67;;;4.40;70.03
42003;BME280;27693;50.506;30.832;2023-03-20T05:36:19;100098.55;;;4.40;69.92
42003;BME280;27693;50.506;30.832;2023-03-20T05:37:32;100102.92;;;4.34;69.36
42003;BME280;27693;50.506;30.832;2023-03-20T05:38:43;100102.98;;;4.30;69.24
42003;BME280;27693;50.506;30.832;2023-03-20T05:39:53;100106.42;;;4.29;69.15
42003;BME280;27693;50.506;30.832;2023-03-20T05:41:04;100111.69;;;4.20;69.44
42003;BME280;27693;50.506;30.832;2023-03-20T05:42:18;100110.03;;;4.16;69.76
42003;BME280;27693;50.506;30.832;2023-03-20T05:43:36;100107.48;;;4.13;70.01
42003;BME280;27693;50.506;30.832;2023-03-20T05:44:53;100112.77;;;4.04;70.33
42003;BME280;27693;50.506;30.832;2023-03-20T05:46:04;100106.07;;;3.89;71.15
42003;BME280;27693;50.506;30.832;2023-03-20T05:47:15;100107.59;;;4.05;71.35
42003;BME280;27693;50.506;30.832;2023-03-20T05:48:36;100113.72;;;3.96;71.53
42003;BME280;27693;50.506;30.832;2023-03-20T05:49:55;100110.28;;;3.97;71.42
42003;BME280;27693;50.506;30.832;2023-03-20T05:51:07;100113.66;;;3.99;71.31
42003;BME280;27693;50.506;30.832;2023-03-20T05:52:14;100113.64;;;4.03;71.48
42003;BME280;27693;50.506;30.832;2023-03-20T05:53:33;100114.34;;;4.14;71.21
42003;BME280;27693;50.506;30.832;2023-03-20T05:54:45;100114.12;;;4.31;70.52
42003;BME280;27693;50.506;30.832;2023-03-20T05:55:59;100121.77;;;4.39;70.12
42003;BME280;27693;50.506;30.832;2023-03-20T05:57:14;100113.94;;;4.45;69.97
42003;BME280;27693;50.506;30.832;2023-03-20T05:58:19;100112.92;;;4.55;69.84
42003;BME280;27693;50.506;30.832;2023-03-20T05:59:23;100110.12;;;4.71;69.33
42003;BME280;27693;50.506;30.832;2023-03-20T06:00:44;100112.59;;;4.77;68.73
42003;BME280;27693;50.506;30.832;2023-03-20T06:02:06;100111.73;;;4.78;68.48
42003;BME280;27693;50.506;30.832;2023-03-20T06:03:11;100114.34;;;4.75;68.48
42003;BME280;27693;50.506;30.832;2023-03-20T06:04:18;100114.63;;;4.56;68.43
42003;BME280;27693;50.506;30.832;2023-03-20T06:05:29;100116.48;;;4.46;68.82
42003;BME280;27693;50.506;30.832;2023-03-20T06:06:32;100116.42;;;4.51;68.93
42003;BME280;27693;50.506;30.832;2023-03-20T06:07:44;100112.92;;;4.55;69.24
42003;BME280;27693;50.506;30.832;2023-03-20T06:08:49;100113.22;;;4.34;69.54
42003;BME280;27693;50.506;30.832;2023-03-20T06:09:52;100114.92;;;4.35;69.89
42003;BME280;27693;50.506;30.832;2023-03-20T06:10:54;100113.19;;;4.37;69.76
42003;BME280;27693;50.506;30.832;2023-03-20T06:11:58;100112.38;;;4.33;69.90
42003;BME280;27693;50.506;30.832;2023-03-20T06:13:01;100109.75;;;4.38;69.99
42003;BME280;27693;50.506;30.832;2023-03-20T06:14:04;100117.50;;;4.35;69.78
42003;BME280;27693;50.506;30.832;2023-03-20T06:15:09;100115.80;;;4.34;69.83
42003;BME280;27693;50.506;30.832;2023-03-20T06:16:14;100109.84;;;4.31;69.91
42003;BME280;27693;50.506;30.832;2023-03-20T06:17:17;100115.08;;;4.25;70.22
42003;BME280;27693;50.506;30.832;2023-03-20T06:18:22;100115.94;;;4.23;70.57
42003;BME280;27693;50.506;30.832;2023-03-20T06:19:26;100119.39;;;4.23;70.79
42003;BME280;27693;50.506;30.832;2023-03-20T06:20:29;100116.84;;;4.20;70.99
42003;BME280;27693;50.506;30.832;2023-03-20T06:21:32;100120.14;;;4.30;71.15
42003;BME280;27693;50.506;30.832;2023-03-20T06:22:35;100114.90;;;4.38;71.15
42003;BME280;27693;50.506;30.832;2023-03-20T06:23:39;100113.13;;;4.40;70.96
42003;BME280;27693;50.506;30.832;2023-03-20T06:24:42;100114.81;;;4.44;70.86
42003;BME280;27693;50.506;30.832;2023-03-20T06:25:44;100118.07;;;4.55;70.83
42003;BME280;27693;50.506;30.832;2023-03-20T06:26:56;100117.66;;;4.83;70.75
42003;BME280;27693;50.506;30.832;2023-03-20T06:27:59;100114.24;;;4.81;70.24
42003;BME280;27693;50.506;30.832;2023-03-20T06:29:02;100120.09;;;4.92;69.94
42003;BME280;27693;50.506;30.832;2023-03-20T06:30:06;100125.98;;;4.99;69.80